WLF1204 LCLK-EDDF
Flight info
| Callsign | WLF1204 |
|---|---|
| Flight time | 3h 35m |
| Altitude | 34000 |
| Route | PHA DCT GENOS DCT PEDER M855 TOMBI UA16 AYT UQ23 OSVEL UL619 MAKOL DCT KOMAN DCT TEGRI DCT ABETI DCT SUBEN DCT AKINI T161 DEBHI SPESA5B |
| Aircraft | B77L/H-SDE1E2E3FGHIJ2J3J4J5M1RWXY/LB1D1 |
Departure
| Time | 2026-05-04 17:52 |
|---|---|
| Airport | Larnaca International Airport (LCLK) |
Arrival
| Time | 2026-05-04 21:28 |
|---|---|
| Airport | Frankfurt Main Airport (EDDF) |
| Time | Latitude | Longitude | Altitude | Speed | Heading |
|---|---|---|---|---|---|
| 2026-05-04 17:36 | 34.88395 | 33.63046 | 20 ft | 0 kts | 225° |
| 2026-05-04 17:48 | 34.88392 | 33.63042 | 20 ft | 4 kts | 225° |
| 2026-05-04 17:48 | 34.88362 | 33.62993 | 20 ft | 5 kts | 224° |
| 2026-05-04 17:49 | 34.88339 | 33.62993 | 21 ft | 4 kts | 165° |
| 2026-05-04 17:49 | 34.88317 | 33.63009 | 20 ft | 4 kts | 142° |
| 2026-05-04 17:49 | 34.88299 | 33.63030 | 22 ft | 4 kts | 135° |
| 2026-05-04 17:49 | 34.88282 | 33.63053 | 20 ft | 4 kts | 129° |
| 2026-05-04 17:50 | 34.88269 | 33.63079 | 23 ft | 4 kts | 113° |
| 2026-05-04 17:50 | 34.88272 | 33.63112 | 26 ft | 5 kts | 69° |
| 2026-05-04 17:50 | 34.88303 | 33.63164 | 26 ft | 10 kts | 48° |
| 2026-05-04 17:50 | 34.88371 | 33.63246 | 21 ft | 17 kts | 45° |
| 2026-05-04 17:51 | 34.88439 | 33.63367 | 26 ft | 17 kts | 98° |
| 2026-05-04 17:51 | 34.88366 | 33.63476 | 23 ft | 17 kts | 138° |
| 2026-05-04 17:51 | 34.88264 | 33.63475 | 22 ft | 17 kts | 222° |
| 2026-05-04 17:51 | 34.88119 | 33.63300 | 22 ft | 58 kts | 225° |
| 2026-05-04 17:52 | 34.87648 | 33.62728 | 26 ft | 132 kts | 225° |
| 2026-05-04 17:52 | 34.86858 | 33.61749 | 109 ft | 184 kts | 225° |
| 2026-05-04 17:52 | 34.85896 | 33.60575 | 574 ft | 207 kts | 226° |
| 2026-05-04 17:52 | 34.84903 | 33.59383 | 1483 ft | 194 kts | 227° |
| 2026-05-04 17:53 | 34.83972 | 33.58208 | 2138 ft | 201 kts | 230° |
| 2026-05-04 17:53 | 34.82966 | 33.56872 | 2389 ft | 227 kts | 230° |
| 2026-05-04 17:53 | 34.81868 | 33.55423 | 2941 ft | 238 kts | 230° |
| 2026-05-04 17:53 | 34.80703 | 33.53898 | 3557 ft | 250 kts | 230° |
| 2026-05-04 17:54 | 34.79506 | 33.52344 | 4351 ft | 254 kts | 230° |
| 2026-05-04 17:54 | 34.78279 | 33.50758 | 5112 ft | 259 kts | 230° |
| 2026-05-04 17:54 | 34.77038 | 33.49157 | 5979 ft | 262 kts | 230° |
| 2026-05-04 17:54 | 34.75774 | 33.47531 | 6712 ft | 266 kts | 230° |
| 2026-05-04 17:55 | 34.74509 | 33.45906 | 7583 ft | 265 kts | 230° |
| 2026-05-04 17:55 | 34.73231 | 33.44268 | 8426 ft | 268 kts | 230° |
| 2026-05-04 17:55 | 34.71947 | 33.42622 | 9216 ft | 269 kts | 230° |
| 2026-05-04 17:55 | 34.70657 | 33.40967 | 9975 ft | 272 kts | 231° |
| 2026-05-04 17:56 | 34.69330 | 33.39262 | 10464 ft | 286 kts | 231° |
| 2026-05-04 17:56 | 34.68215 | 33.37215 | 10579 ft | 300 kts | 254° |
| 2026-05-04 17:56 | 34.67943 | 33.34637 | 10758 ft | 317 kts | 273° |
| 2026-05-04 17:56 | 34.68080 | 33.31872 | 10996 ft | 338 kts | 274° |
| 2026-05-04 17:57 | 34.68216 | 33.28979 | 11619 ft | 348 kts | 273° |
| 2026-05-04 17:57 | 34.68348 | 33.26029 | 12416 ft | 353 kts | 273° |
| 2026-05-04 17:57 | 34.68478 | 33.23033 | 13330 ft | 356 kts | 273° |
| 2026-05-04 17:57 | 34.68603 | 33.20022 | 14169 ft | 359 kts | 273° |
| 2026-05-04 17:58 | 34.68725 | 33.16971 | 14952 ft | 363 kts | 273° |
| 2026-05-04 17:58 | 34.68848 | 33.13889 | 15678 ft | 367 kts | 273° |
| 2026-05-04 17:58 | 34.68970 | 33.10767 | 16326 ft | 374 kts | 273° |
| 2026-05-04 17:58 | 34.69094 | 33.07589 | 17077 ft | 378 kts | 273° |
| 2026-05-04 17:59 | 34.69218 | 33.04379 | 17844 ft | 381 kts | 273° |
| 2026-05-04 17:59 | 34.69342 | 33.01155 | 18535 ft | 385 kts | 273° |
| 2026-05-04 17:59 | 34.69592 | 32.94599 | 19820 ft | 392 kts | 273° |
| 2026-05-04 18:00 | 34.69717 | 32.91274 | 20452 ft | 395 kts | 273° |
| 2026-05-04 18:00 | 34.69840 | 32.87965 | 21068 ft | 399 kts | 273° |
| 2026-05-04 18:00 | 34.69968 | 32.84539 | 21662 ft | 403 kts | 273° |
| 2026-05-04 18:00 | 34.70092 | 32.81159 | 22250 ft | 408 kts | 273° |
| 2026-05-04 18:01 | 34.70220 | 32.77699 | 22851 ft | 411 kts | 272° |
| 2026-05-04 18:01 | 34.70346 | 32.74218 | 23455 ft | 415 kts | 272° |
| 2026-05-04 18:01 | 34.70473 | 32.70698 | 23962 ft | 418 kts | 272° |
| 2026-05-04 18:02 | 34.70724 | 32.63615 | 25086 ft | 421 kts | 272° |
| 2026-05-04 18:02 | 34.70850 | 32.60045 | 25575 ft | 425 kts | 272° |
| 2026-05-04 18:02 | 34.70977 | 32.56440 | 25971 ft | 430 kts | 272° |
| 2026-05-04 18:02 | 34.71103 | 32.52792 | 26454 ft | 433 kts | 272° |
| 2026-05-04 18:03 | 34.71197 | 32.49122 | 26969 ft | 435 kts | 270° |
| 2026-05-04 18:03 | 34.71091 | 32.45450 | 27475 ft | 437 kts | 266° |
| 2026-05-04 18:03 | 34.70869 | 32.41758 | 27923 ft | 439 kts | 266° |
| 2026-05-04 18:03 | 34.70618 | 32.38041 | 28326 ft | 442 kts | 265° |
| 2026-05-04 18:04 | 34.70372 | 32.34319 | 28845 ft | 442 kts | 266° |
| 2026-05-04 18:04 | 34.70148 | 32.30589 | 29407 ft | 443 kts | 266° |
| 2026-05-04 18:04 | 34.69720 | 32.23087 | 30203 ft | 446 kts | 266° |
| 2026-05-04 18:05 | 34.69519 | 32.19326 | 30612 ft | 445 kts | 267° |
| 2026-05-04 18:05 | 34.69313 | 32.15585 | 31043 ft | 444 kts | 267° |
| 2026-05-04 18:05 | 34.69109 | 32.11847 | 31513 ft | 442 kts | 266° |
| 2026-05-04 18:05 | 34.68903 | 32.08126 | 31949 ft | 440 kts | 267° |
| 2026-05-04 18:06 | 34.68495 | 32.00701 | 32475 ft | 443 kts | 267° |
| 2026-05-04 18:06 | 34.68294 | 31.96980 | 32905 ft | 441 kts | 268° |
| 2026-05-04 18:06 | 34.68388 | 31.93274 | 33360 ft | 438 kts | 278° |
| 2026-05-04 18:07 | 34.69008 | 31.89660 | 33782 ft | 436 kts | 284° |
| 2026-05-04 18:07 | 34.69946 | 31.86153 | 33938 ft | 440 kts | 290° |
| 2026-05-04 18:07 | 34.72901 | 31.79590 | 33955 ft | 442 kts | 298° |
| 2026-05-04 18:08 | 34.76093 | 31.73194 | 33942 ft | 443 kts | 298° |
| 2026-05-04 18:08 | 34.79262 | 31.66763 | 33935 ft | 444 kts | 298° |
| 2026-05-04 18:09 | 34.85544 | 31.53821 | 33932 ft | 444 kts | 298° |
| 2026-05-04 18:10 | 34.88681 | 31.47325 | 33932 ft | 444 kts | 298° |
| 2026-05-04 18:10 | 34.91814 | 31.40834 | 33935 ft | 445 kts | 298° |
| 2026-05-04 18:11 | 34.94931 | 31.34365 | 33932 ft | 445 kts | 298° |
| 2026-05-04 18:11 | 34.98061 | 31.27851 | 33926 ft | 445 kts | 298° |
| 2026-05-04 18:12 | 35.01187 | 31.21335 | 33920 ft | 446 kts | 298° |
| 2026-05-04 18:12 | 35.04313 | 31.14809 | 33925 ft | 446 kts | 298° |
| 2026-05-04 18:13 | 35.07444 | 31.08260 | 33926 ft | 446 kts | 298° |
| 2026-05-04 18:14 | 35.12144 | 30.98402 | 33934 ft | 449 kts | 299° |
| 2026-05-04 18:14 | 35.15375 | 30.91859 | 33908 ft | 450 kts | 308° |
| 2026-05-04 18:15 | 35.20440 | 30.87370 | 33925 ft | 461 kts | 335° |
| 2026-05-04 18:15 | 35.26784 | 30.85908 | 33930 ft | 472 kts | 355° |
| 2026-05-04 18:16 | 35.33377 | 30.85849 | 33922 ft | 475 kts | 356° |
| 2026-05-04 18:16 | 35.39999 | 30.85733 | 33916 ft | 477 kts | 355° |
| 2026-05-04 18:17 | 35.49940 | 30.85406 | 33908 ft | 476 kts | 355° |
| 2026-05-04 18:18 | 35.59833 | 30.85064 | 33917 ft | 473 kts | 355° |
| 2026-05-04 18:18 | 35.66391 | 30.84768 | 33908 ft | 471 kts | 354° |
| 2026-05-04 18:19 | 35.76190 | 30.84126 | 33909 ft | 470 kts | 354° |
| 2026-05-04 18:19 | 35.82717 | 30.83713 | 33913 ft | 470 kts | 354° |
| 2026-05-04 18:20 | 35.89277 | 30.83311 | 33911 ft | 472 kts | 354° |
| 2026-05-04 18:20 | 35.95853 | 30.82908 | 33913 ft | 474 kts | 354° |
| 2026-05-04 18:21 | 36.02440 | 30.82504 | 33927 ft | 475 kts | 355° |
| 2026-05-04 18:21 | 36.09055 | 30.82185 | 33914 ft | 476 kts | 356° |
| 2026-05-04 18:22 | 36.15690 | 30.82007 | 33910 ft | 476 kts | 356° |
| 2026-05-04 18:22 | 36.22310 | 30.81820 | 33908 ft | 476 kts | 356° |
| 2026-05-04 18:23 | 36.28881 | 30.81612 | 33902 ft | 467 kts | 356° |
| 2026-05-04 18:23 | 36.35299 | 30.81404 | 33915 ft | 463 kts | 356° |
| 2026-05-04 18:24 | 36.41756 | 30.81195 | 33913 ft | 465 kts | 356° |
| 2026-05-04 18:24 | 36.48234 | 30.80970 | 33926 ft | 467 kts | 356° |
| 2026-05-04 18:25 | 36.54733 | 30.80735 | 33911 ft | 468 kts | 356° |
| 2026-05-04 18:25 | 36.61253 | 30.80504 | 33915 ft | 468 kts | 356° |
| 2026-05-04 18:26 | 36.67757 | 30.80271 | 33956 ft | 467 kts | 356° |
| 2026-05-04 18:26 | 36.74220 | 30.80040 | 33931 ft | 463 kts | 356° |
| 2026-05-04 18:27 | 36.80626 | 30.79813 | 33933 ft | 459 kts | 356° |
| 2026-05-04 18:27 | 36.86998 | 30.79584 | 33936 ft | 456 kts | 356° |
| 2026-05-04 18:28 | 36.93325 | 30.79526 | 33940 ft | 455 kts | 1° |
| 2026-05-04 18:28 | 36.99604 | 30.80390 | 33933 ft | 453 kts | 4° |
| 2026-05-04 18:29 | 37.05852 | 30.81322 | 33934 ft | 452 kts | 4° |
| 2026-05-04 18:29 | 37.12107 | 30.82230 | 33942 ft | 452 kts | 4° |
| 2026-05-04 18:30 | 37.21517 | 30.83567 | 33945 ft | 455 kts | 4° |
| 2026-05-04 18:31 | 37.27813 | 30.84464 | 33951 ft | 456 kts | 4° |
| 2026-05-04 18:31 | 37.34128 | 30.85366 | 33962 ft | 457 kts | 4° |
| 2026-05-04 18:32 | 37.40460 | 30.86271 | 33958 ft | 458 kts | 4° |
| 2026-05-04 18:32 | 37.46781 | 30.87175 | 33957 ft | 457 kts | 4° |
| 2026-05-04 18:33 | 37.53087 | 30.88077 | 33973 ft | 456 kts | 4° |
| 2026-05-04 18:33 | 37.59375 | 30.88980 | 33975 ft | 454 kts | 4° |
| 2026-05-04 18:34 | 37.65613 | 30.89879 | 33974 ft | 453 kts | 4° |
| 2026-05-04 18:34 | 37.71872 | 30.90779 | 33987 ft | 452 kts | 4° |
| 2026-05-04 18:35 | 37.78122 | 30.91681 | 33982 ft | 452 kts | 4° |
| 2026-05-04 18:35 | 37.84369 | 30.92583 | 33986 ft | 452 kts | 4° |
| 2026-05-04 18:36 | 37.89573 | 30.93336 | 33998 ft | 453 kts | 4° |
| 2026-05-04 18:36 | 37.95877 | 30.94250 | 34001 ft | 453 kts | 4° |
| 2026-05-04 18:37 | 38.02158 | 30.95163 | 33998 ft | 454 kts | 4° |
| 2026-05-04 18:37 | 38.08393 | 30.96070 | 34023 ft | 454 kts | 4° |
| 2026-05-04 18:38 | 38.14683 | 30.96988 | 33988 ft | 456 kts | 4° |
| 2026-05-04 18:38 | 38.20977 | 30.97906 | 33986 ft | 456 kts | 4° |
| 2026-05-04 18:39 | 38.27285 | 30.98829 | 34023 ft | 457 kts | 5° |
| 2026-05-04 18:39 | 38.33598 | 30.99754 | 33992 ft | 457 kts | 5° |
| 2026-05-04 18:40 | 38.39923 | 31.00682 | 33994 ft | 457 kts | 5° |
| 2026-05-04 18:40 | 38.46238 | 31.01204 | 33991 ft | 454 kts | 355° |
| 2026-05-04 18:41 | 38.52444 | 30.99899 | 33997 ft | 452 kts | 343° |
| 2026-05-04 18:41 | 38.58365 | 30.97164 | 34004 ft | 453 kts | 339° |
| 2026-05-04 18:42 | 38.64241 | 30.94259 | 34008 ft | 453 kts | 339° |
| 2026-05-04 18:42 | 38.70127 | 30.91381 | 34018 ft | 453 kts | 340° |
| 2026-05-04 18:43 | 38.76036 | 30.88522 | 34015 ft | 454 kts | 340° |
| 2026-05-04 18:43 | 38.81952 | 30.85666 | 34012 ft | 455 kts | 340° |
| 2026-05-04 18:44 | 38.87881 | 30.82799 | 34009 ft | 456 kts | 340° |
| 2026-05-04 18:44 | 38.93778 | 30.79942 | 34000 ft | 456 kts | 341° |
| 2026-05-04 18:45 | 38.99719 | 30.77056 | 33994 ft | 457 kts | 340° |
| 2026-05-04 18:45 | 39.05661 | 30.74164 | 34000 ft | 456 kts | 340° |
| 2026-05-04 18:46 | 39.11594 | 30.71273 | 34007 ft | 456 kts | 340° |
| 2026-05-04 18:46 | 39.17523 | 30.68374 | 34008 ft | 455 kts | 341° |
| 2026-05-04 18:47 | 39.23431 | 30.65485 | 34005 ft | 454 kts | 341° |
| 2026-05-04 18:47 | 39.29333 | 30.62596 | 34009 ft | 453 kts | 341° |
| 2026-05-04 18:48 | 39.35225 | 30.59703 | 34000 ft | 453 kts | 341° |
| 2026-05-04 18:48 | 39.41110 | 30.56805 | 34034 ft | 452 kts | 341° |
| 2026-05-04 18:49 | 39.46990 | 30.53909 | 34010 ft | 452 kts | 341° |
| 2026-05-04 18:49 | 39.52867 | 30.51008 | 34012 ft | 452 kts | 341° |
| 2026-05-04 18:50 | 39.58680 | 30.47873 | 34013 ft | 453 kts | 339° |
| 2026-05-04 18:50 | 39.64432 | 30.44502 | 34013 ft | 454 kts | 339° |
| 2026-05-04 18:51 | 39.70187 | 30.41109 | 33995 ft | 455 kts | 339° |
| 2026-05-04 18:51 | 39.75954 | 30.37727 | 33994 ft | 455 kts | 339° |
| 2026-05-04 18:52 | 39.81737 | 30.34342 | 33999 ft | 457 kts | 339° |
| 2026-05-04 18:52 | 39.87539 | 30.30942 | 33995 ft | 458 kts | 339° |
| 2026-05-04 18:53 | 39.93347 | 30.27539 | 34006 ft | 458 kts | 339° |
| 2026-05-04 18:53 | 39.99170 | 30.24110 | 34014 ft | 461 kts | 339° |
| 2026-05-04 18:54 | 40.04976 | 30.20689 | 34026 ft | 461 kts | 339° |
| 2026-05-04 18:54 | 40.10819 | 30.17242 | 34023 ft | 461 kts | 339° |
| 2026-05-04 18:55 | 40.16655 | 30.13785 | 34026 ft | 459 kts | 339° |
| 2026-05-04 18:55 | 40.25323 | 30.08653 | 34015 ft | 451 kts | 340° |
| 2026-05-04 18:56 | 40.31007 | 30.05266 | 34015 ft | 447 kts | 340° |
| 2026-05-04 18:56 | 40.36666 | 30.01890 | 34031 ft | 448 kts | 340° |
| 2026-05-04 18:57 | 40.42342 | 29.98511 | 34043 ft | 448 kts | 340° |
| 2026-05-04 18:57 | 40.48030 | 29.95113 | 34043 ft | 450 kts | 340° |
| 2026-05-04 18:58 | 40.53729 | 29.91697 | 34037 ft | 451 kts | 340° |
| 2026-05-04 18:58 | 40.59449 | 29.88270 | 34040 ft | 452 kts | 340° |
| 2026-05-04 18:59 | 40.65189 | 29.84820 | 34038 ft | 454 kts | 340° |
| 2026-05-04 18:59 | 40.70932 | 29.81364 | 34025 ft | 455 kts | 340° |
| 2026-05-04 19:00 | 40.76689 | 29.77889 | 34039 ft | 455 kts | 340° |
| 2026-05-04 19:00 | 40.82435 | 29.74415 | 34047 ft | 454 kts | 340° |
| 2026-05-04 19:01 | 40.88179 | 29.70935 | 34044 ft | 454 kts | 340° |
| 2026-05-04 19:01 | 40.93920 | 29.67451 | 34047 ft | 454 kts | 340° |
| 2026-05-04 19:02 | 40.99657 | 29.63963 | 34038 ft | 454 kts | 340° |
| 2026-05-04 19:02 | 41.05397 | 29.60466 | 34044 ft | 454 kts | 340° |
| 2026-05-04 19:03 | 41.11124 | 29.56971 | 34030 ft | 453 kts | 340° |
| 2026-05-04 19:03 | 41.16809 | 29.53496 | 34035 ft | 453 kts | 340° |
| 2026-05-04 19:04 | 41.22638 | 29.50462 | 34034 ft | 447 kts | 348° |
| 2026-05-04 19:04 | 41.28620 | 29.48244 | 34033 ft | 446 kts | 349° |
| 2026-05-04 19:05 | 41.34354 | 29.46117 | 34031 ft | 446 kts | 348° |
| 2026-05-04 19:05 | 41.39716 | 29.44094 | 34027 ft | 447 kts | 348° |
| 2026-05-04 19:06 | 41.44755 | 29.42180 | 34040 ft | 448 kts | 348° |
| 2026-05-04 19:06 | 41.49451 | 29.40388 | 34031 ft | 448 kts | 348° |
| 2026-05-04 19:07 | 41.53923 | 29.38680 | 34030 ft | 448 kts | 348° |
| 2026-05-04 19:07 | 41.58377 | 29.36978 | 34019 ft | 447 kts | 348° |
| 2026-05-04 19:08 | 41.63325 | 29.35084 | 34024 ft | 448 kts | 348° |
| 2026-05-04 19:08 | 41.69293 | 29.32796 | 34035 ft | 449 kts | 348° |
| 2026-05-04 19:09 | 41.75289 | 29.30494 | 34033 ft | 449 kts | 348° |
| 2026-05-04 19:09 | 41.81302 | 29.28178 | 34027 ft | 450 kts | 348° |
| 2026-05-04 19:10 | 41.87273 | 29.25874 | 34021 ft | 450 kts | 348° |
| 2026-05-04 19:10 | 41.93279 | 29.23553 | 34042 ft | 450 kts | 348° |
| 2026-05-04 19:11 | 41.98525 | 29.21521 | 34034 ft | 451 kts | 348° |
| 2026-05-04 19:11 | 42.03099 | 29.19748 | 34040 ft | 451 kts | 348° |
| 2026-05-04 19:12 | 42.12034 | 29.16270 | 34035 ft | 452 kts | 347° |
| 2026-05-04 19:12 | 42.14972 | 29.14700 | 34015 ft | 458 kts | 336° |
| 2026-05-04 19:13 | 42.17705 | 29.12438 | 34036 ft | 464 kts | 329° |
| 2026-05-04 19:13 | 42.22431 | 29.06414 | 34051 ft | 473 kts | 316° |
| 2026-05-04 19:14 | 42.26685 | 28.99609 | 34038 ft | 476 kts | 314° |
| 2026-05-04 19:14 | 42.30752 | 28.92539 | 34033 ft | 477 kts | 312° |
| 2026-05-04 19:15 | 42.34776 | 28.85415 | 34043 ft | 478 kts | 312° |
| 2026-05-04 19:15 | 42.38837 | 28.78280 | 34045 ft | 478 kts | 312° |
| 2026-05-04 19:16 | 42.42916 | 28.71150 | 34041 ft | 479 kts | 312° |
| 2026-05-04 19:16 | 42.46993 | 28.64021 | 34046 ft | 479 kts | 312° |
| 2026-05-04 19:17 | 42.51066 | 28.56882 | 34049 ft | 479 kts | 312° |
| 2026-05-04 19:17 | 42.55133 | 28.49734 | 34031 ft | 479 kts | 312° |
| 2026-05-04 19:18 | 42.59197 | 28.42577 | 34050 ft | 478 kts | 311° |
| 2026-05-04 19:18 | 42.63247 | 28.35426 | 34056 ft | 478 kts | 311° |
| 2026-05-04 19:19 | 42.67291 | 28.28267 | 34059 ft | 478 kts | 311° |
| 2026-05-04 19:19 | 42.71328 | 28.21105 | 34053 ft | 477 kts | 311° |
| 2026-05-04 19:20 | 42.75335 | 28.13976 | 34063 ft | 477 kts | 311° |
| 2026-05-04 19:20 | 42.79359 | 28.06799 | 34070 ft | 477 kts | 311° |
| 2026-05-04 19:21 | 42.83386 | 27.99606 | 34052 ft | 478 kts | 310° |
| 2026-05-04 19:21 | 42.87407 | 27.92402 | 34068 ft | 478 kts | 310° |
| 2026-05-04 19:22 | 42.91428 | 27.85177 | 34076 ft | 478 kts | 310° |
| 2026-05-04 19:22 | 42.95443 | 27.77949 | 34064 ft | 478 kts | 310° |
| 2026-05-04 19:23 | 42.99454 | 27.70713 | 34059 ft | 478 kts | 310° |
| 2026-05-04 19:23 | 43.03460 | 27.63453 | 34056 ft | 479 kts | 310° |
| 2026-05-04 19:24 | 43.07473 | 27.56174 | 34079 ft | 478 kts | 310° |
| 2026-05-04 19:24 | 43.11476 | 27.48906 | 34040 ft | 478 kts | 309° |
| 2026-05-04 19:25 | 43.14793 | 27.42863 | 34054 ft | 476 kts | 309° |
| 2026-05-04 19:25 | 43.18760 | 27.35621 | 34055 ft | 474 kts | 309° |
| 2026-05-04 19:26 | 43.22695 | 27.28414 | 34056 ft | 472 kts | 309° |
| 2026-05-04 19:26 | 43.26617 | 27.21216 | 34052 ft | 470 kts | 308° |
| 2026-05-04 19:27 | 43.30516 | 27.14043 | 34045 ft | 468 kts | 308° |
| 2026-05-04 19:27 | 43.34396 | 27.06888 | 34047 ft | 466 kts | 308° |
| 2026-05-04 19:28 | 43.38264 | 26.99735 | 34053 ft | 466 kts | 308° |
| 2026-05-04 19:28 | 43.42126 | 26.92578 | 34050 ft | 466 kts | 307° |
| 2026-05-04 19:29 | 43.45983 | 26.85413 | 34047 ft | 466 kts | 307° |
| 2026-05-04 19:29 | 43.49842 | 26.78233 | 34043 ft | 467 kts | 307° |
| 2026-05-04 19:30 | 43.53704 | 26.71021 | 34051 ft | 468 kts | 307° |
| 2026-05-04 19:30 | 43.57565 | 26.63796 | 34047 ft | 468 kts | 307° |
| 2026-05-04 19:31 | 43.61429 | 26.56551 | 34045 ft | 469 kts | 307° |
| 2026-05-04 19:31 | 43.65289 | 26.49287 | 34044 ft | 469 kts | 307° |
| 2026-05-04 19:32 | 43.69140 | 26.42025 | 34036 ft | 468 kts | 307° |
| 2026-05-04 19:32 | 43.72979 | 26.34769 | 34041 ft | 468 kts | 307° |
| 2026-05-04 19:33 | 43.76814 | 26.27504 | 34042 ft | 467 kts | 307° |
| 2026-05-04 19:33 | 43.80627 | 26.20261 | 34040 ft | 466 kts | 307° |
| 2026-05-04 19:34 | 43.84418 | 26.13043 | 34042 ft | 466 kts | 307° |
| 2026-05-04 19:34 | 43.88187 | 26.05671 | 34046 ft | 466 kts | 305° |
| 2026-05-04 19:35 | 43.91810 | 25.98212 | 34048 ft | 466 kts | 305° |
| 2026-05-04 19:35 | 43.95399 | 25.90788 | 34035 ft | 466 kts | 304° |
| 2026-05-04 19:36 | 43.99047 | 25.83272 | 34048 ft | 467 kts | 304° |
| 2026-05-04 19:36 | 44.02680 | 25.75797 | 34050 ft | 467 kts | 304° |
| 2026-05-04 19:37 | 44.06291 | 25.68352 | 34053 ft | 468 kts | 304° |
| 2026-05-04 19:37 | 44.09920 | 25.60846 | 34050 ft | 468 kts | 304° |
| 2026-05-04 19:38 | 44.13549 | 25.53325 | 34051 ft | 468 kts | 304° |
| 2026-05-04 19:38 | 44.17171 | 25.45802 | 34055 ft | 468 kts | 304° |
| 2026-05-04 19:39 | 44.20790 | 25.38260 | 34060 ft | 468 kts | 304° |
| 2026-05-04 19:39 | 44.24405 | 25.30708 | 34055 ft | 468 kts | 303° |
| 2026-05-04 19:40 | 44.28013 | 25.23148 | 34058 ft | 468 kts | 303° |
| 2026-05-04 19:40 | 44.31612 | 25.15590 | 34054 ft | 468 kts | 303° |
| 2026-05-04 19:41 | 44.35201 | 25.08036 | 34052 ft | 467 kts | 303° |
| 2026-05-04 19:41 | 44.38790 | 25.00456 | 34058 ft | 467 kts | 303° |
| 2026-05-04 19:42 | 44.42368 | 24.92884 | 34060 ft | 467 kts | 303° |
| 2026-05-04 19:42 | 44.45940 | 24.85305 | 34059 ft | 467 kts | 303° |
| 2026-05-04 19:43 | 44.49512 | 24.77704 | 34058 ft | 467 kts | 303° |
| 2026-05-04 19:43 | 44.53076 | 24.70098 | 34057 ft | 467 kts | 303° |
| 2026-05-04 19:44 | 44.56642 | 24.62471 | 34069 ft | 468 kts | 303° |
| 2026-05-04 19:44 | 44.60214 | 24.54811 | 34068 ft | 469 kts | 303° |
| 2026-05-04 19:45 | 44.63777 | 24.47150 | 34055 ft | 470 kts | 303° |
| 2026-05-04 19:45 | 44.67347 | 24.39453 | 34072 ft | 470 kts | 303° |
| 2026-05-04 19:46 | 44.70911 | 24.31747 | 34075 ft | 471 kts | 303° |
| 2026-05-04 19:46 | 44.74473 | 24.24023 | 34079 ft | 471 kts | 303° |
| 2026-05-04 19:47 | 44.78031 | 24.16285 | 34068 ft | 471 kts | 304° |
| 2026-05-04 19:47 | 44.81593 | 24.08524 | 34075 ft | 471 kts | 304° |
| 2026-05-04 19:48 | 44.85146 | 24.00763 | 34072 ft | 472 kts | 304° |
| 2026-05-04 19:48 | 44.88693 | 23.92989 | 34074 ft | 472 kts | 304° |
| 2026-05-04 19:49 | 44.92240 | 23.85192 | 34076 ft | 471 kts | 304° |
| 2026-05-04 19:49 | 44.95774 | 23.77406 | 34077 ft | 471 kts | 304° |
| 2026-05-04 19:50 | 44.99300 | 23.69613 | 34071 ft | 471 kts | 304° |
| 2026-05-04 19:50 | 45.02818 | 23.61823 | 34083 ft | 470 kts | 304° |
| 2026-05-04 19:51 | 45.06327 | 23.54026 | 34074 ft | 470 kts | 305° |
| 2026-05-04 19:51 | 45.09834 | 23.46211 | 34088 ft | 470 kts | 305° |
| 2026-05-04 19:52 | 45.13306 | 23.38455 | 34090 ft | 470 kts | 305° |
| 2026-05-04 19:52 | 45.16819 | 23.30589 | 34097 ft | 469 kts | 304° |
| 2026-05-04 19:53 | 45.20284 | 23.22803 | 34101 ft | 470 kts | 304° |
| 2026-05-04 19:53 | 45.23761 | 23.14971 | 34108 ft | 469 kts | 304° |
| 2026-05-04 19:54 | 45.27232 | 23.07136 | 34103 ft | 469 kts | 304° |
| 2026-05-04 19:54 | 45.30694 | 22.99296 | 34095 ft | 468 kts | 304° |
| 2026-05-04 19:55 | 45.34156 | 22.91436 | 34108 ft | 468 kts | 304° |
| 2026-05-04 19:55 | 45.37609 | 22.83572 | 34117 ft | 469 kts | 304° |
| 2026-05-04 19:56 | 45.41055 | 22.75702 | 34132 ft | 469 kts | 304° |
| 2026-05-04 19:56 | 45.44503 | 22.67802 | 34111 ft | 470 kts | 304° |
| 2026-05-04 19:57 | 45.47948 | 22.59892 | 34125 ft | 470 kts | 304° |
| 2026-05-04 19:57 | 45.51389 | 22.51967 | 34122 ft | 471 kts | 304° |
| 2026-05-04 19:58 | 45.54830 | 22.44022 | 34118 ft | 470 kts | 304° |
| 2026-05-04 19:58 | 45.58261 | 22.36075 | 34109 ft | 470 kts | 304° |
| 2026-05-04 19:59 | 45.61678 | 22.28135 | 34119 ft | 469 kts | 304° |
| 2026-05-04 19:59 | 45.65080 | 22.20212 | 34105 ft | 468 kts | 304° |
| 2026-05-04 20:00 | 45.68474 | 22.12282 | 34095 ft | 468 kts | 304° |
| 2026-05-04 20:00 | 45.71866 | 22.04333 | 34089 ft | 467 kts | 304° |
| 2026-05-04 20:01 | 45.75248 | 21.96395 | 34089 ft | 467 kts | 304° |
| 2026-05-04 20:01 | 45.78624 | 21.88442 | 34086 ft | 467 kts | 304° |
| 2026-05-04 20:02 | 45.81991 | 21.80489 | 34088 ft | 467 kts | 304° |
| 2026-05-04 20:02 | 45.85357 | 21.72513 | 34066 ft | 468 kts | 304° |
| 2026-05-04 20:03 | 45.88722 | 21.64516 | 34082 ft | 468 kts | 304° |
| 2026-05-04 20:03 | 45.92086 | 21.56502 | 34082 ft | 468 kts | 304° |
| 2026-05-04 20:04 | 45.95442 | 21.48480 | 34078 ft | 469 kts | 304° |
| 2026-05-04 20:04 | 45.98794 | 21.40442 | 34066 ft | 469 kts | 304° |
| 2026-05-04 20:05 | 46.02144 | 21.32394 | 34067 ft | 469 kts | 304° |
| 2026-05-04 20:05 | 46.05494 | 21.24324 | 34082 ft | 470 kts | 304° |
| 2026-05-04 20:06 | 46.08814 | 21.16297 | 34087 ft | 470 kts | 304° |
| 2026-05-04 20:06 | 46.12171 | 21.08154 | 34079 ft | 470 kts | 303° |
| 2026-05-04 20:07 | 46.15486 | 21.00094 | 34075 ft | 470 kts | 303° |
| 2026-05-04 20:07 | 46.18812 | 20.91981 | 34069 ft | 470 kts | 303° |
| 2026-05-04 20:08 | 46.22132 | 20.83862 | 34069 ft | 470 kts | 303° |
| 2026-05-04 20:08 | 46.25445 | 20.75732 | 34061 ft | 470 kts | 302° |
| 2026-05-04 20:09 | 46.28762 | 20.67574 | 34064 ft | 470 kts | 302° |
| 2026-05-04 20:09 | 46.32063 | 20.59424 | 34056 ft | 469 kts | 302° |
| 2026-05-04 20:10 | 46.35356 | 20.51273 | 34061 ft | 469 kts | 302° |
| 2026-05-04 20:10 | 46.38646 | 20.43106 | 34046 ft | 469 kts | 302° |
| 2026-05-04 20:11 | 46.41395 | 20.36260 | 34054 ft | 469 kts | 302° |
| 2026-05-04 20:11 | 46.44675 | 20.28076 | 34056 ft | 469 kts | 302° |
| 2026-05-04 20:12 | 46.47949 | 20.19883 | 34056 ft | 469 kts | 302° |
| 2026-05-04 20:12 | 46.51220 | 20.11672 | 34056 ft | 470 kts | 301° |
| 2026-05-04 20:13 | 46.54482 | 20.03454 | 34054 ft | 470 kts | 301° |
| 2026-05-04 20:13 | 46.57716 | 19.95283 | 34055 ft | 470 kts | 301° |
| 2026-05-04 20:14 | 46.60987 | 19.86993 | 34064 ft | 470 kts | 301° |
| 2026-05-04 20:14 | 46.64233 | 19.78744 | 34046 ft | 470 kts | 301° |
| 2026-05-04 20:15 | 46.67452 | 19.70538 | 34063 ft | 469 kts | 301° |
| 2026-05-04 20:15 | 46.70676 | 19.62292 | 34054 ft | 469 kts | 301° |
| 2026-05-04 20:16 | 46.73895 | 19.54039 | 34054 ft | 468 kts | 301° |
| 2026-05-04 20:16 | 46.77107 | 19.45776 | 34046 ft | 468 kts | 300° |
| 2026-05-04 20:17 | 46.80305 | 19.37525 | 34048 ft | 467 kts | 300° |
| 2026-05-04 20:17 | 46.83492 | 19.29275 | 34049 ft | 466 kts | 300° |
| 2026-05-04 20:18 | 46.86666 | 19.21034 | 34047 ft | 465 kts | 300° |
| 2026-05-04 20:18 | 46.89835 | 19.12780 | 34030 ft | 465 kts | 300° |
| 2026-05-04 20:19 | 46.92991 | 19.04540 | 34048 ft | 464 kts | 300° |
| 2026-05-04 20:19 | 46.96138 | 18.96296 | 34036 ft | 464 kts | 300° |
| 2026-05-04 20:20 | 46.99279 | 18.88041 | 34038 ft | 464 kts | 300° |
| 2026-05-04 20:20 | 47.02417 | 18.79766 | 34036 ft | 464 kts | 300° |
| 2026-05-04 20:21 | 47.05547 | 18.71487 | 34025 ft | 465 kts | 300° |
| 2026-05-04 20:21 | 47.10242 | 18.59032 | 34031 ft | 465 kts | 300° |
| 2026-05-04 20:22 | 47.13364 | 18.50709 | 34028 ft | 466 kts | 300° |
| 2026-05-04 20:22 | 47.16483 | 18.42369 | 34021 ft | 466 kts | 300° |
| 2026-05-04 20:23 | 47.19480 | 18.34333 | 34024 ft | 466 kts | 300° |
| 2026-05-04 20:23 | 47.22581 | 18.25995 | 34023 ft | 465 kts | 300° |
| 2026-05-04 20:24 | 47.25678 | 18.17639 | 34019 ft | 464 kts | 300° |
| 2026-05-04 20:24 | 47.28766 | 18.09282 | 34014 ft | 464 kts | 300° |
| 2026-05-04 20:25 | 47.31844 | 18.00925 | 34005 ft | 464 kts | 299° |
| 2026-05-04 20:25 | 47.34915 | 17.92564 | 34001 ft | 464 kts | 299° |
| 2026-05-04 20:26 | 47.37980 | 17.84189 | 33997 ft | 464 kts | 299° |
| 2026-05-04 20:26 | 47.41047 | 17.75787 | 33999 ft | 464 kts | 299° |
| 2026-05-04 20:27 | 47.44103 | 17.67387 | 33990 ft | 465 kts | 298° |
| 2026-05-04 20:27 | 47.47154 | 17.58971 | 33994 ft | 465 kts | 298° |
| 2026-05-04 20:28 | 47.50183 | 17.50587 | 33991 ft | 465 kts | 298° |
| 2026-05-04 20:28 | 47.53221 | 17.42153 | 33989 ft | 465 kts | 298° |
| 2026-05-04 20:29 | 47.56253 | 17.33712 | 33978 ft | 465 kts | 297° |
| 2026-05-04 20:29 | 47.59278 | 17.25260 | 33976 ft | 464 kts | 297° |
| 2026-05-04 20:30 | 47.62299 | 17.16791 | 33963 ft | 464 kts | 297° |
| 2026-05-04 20:30 | 47.65310 | 17.08330 | 33960 ft | 464 kts | 297° |
| 2026-05-04 20:31 | 47.68178 | 16.99751 | 33953 ft | 464 kts | 291° |
| 2026-05-04 20:31 | 47.70256 | 16.90686 | 33966 ft | 464 kts | 287° |
| 2026-05-04 20:32 | 47.72250 | 16.81570 | 33956 ft | 465 kts | 288° |
| 2026-05-04 20:32 | 47.74258 | 16.72452 | 33955 ft | 465 kts | 288° |
| 2026-05-04 20:33 | 47.76279 | 16.63327 | 33951 ft | 465 kts | 288° |
| 2026-05-04 20:33 | 47.78299 | 16.54185 | 33940 ft | 466 kts | 288° |
| 2026-05-04 20:34 | 47.80312 | 16.45034 | 33945 ft | 465 kts | 288° |
| 2026-05-04 20:34 | 47.82318 | 16.35877 | 33940 ft | 465 kts | 288° |
| 2026-05-04 20:35 | 47.84312 | 16.26727 | 33938 ft | 465 kts | 287° |
| 2026-05-04 20:35 | 47.86300 | 16.17568 | 33934 ft | 466 kts | 287° |
| 2026-05-04 20:36 | 47.88287 | 16.08369 | 33948 ft | 467 kts | 287° |
| 2026-05-04 20:36 | 47.90275 | 15.99135 | 33946 ft | 469 kts | 287° |
| 2026-05-04 20:37 | 47.92261 | 15.89865 | 33946 ft | 470 kts | 287° |
| 2026-05-04 20:37 | 47.94231 | 15.80636 | 33950 ft | 469 kts | 285° |
| 2026-05-04 20:38 | 47.96206 | 15.71304 | 33936 ft | 468 kts | 285° |
| 2026-05-04 20:38 | 47.98149 | 15.62094 | 33922 ft | 468 kts | 286° |
| 2026-05-04 20:39 | 48.00101 | 15.52829 | 33931 ft | 467 kts | 286° |
| 2026-05-04 20:39 | 48.02038 | 15.43589 | 33921 ft | 466 kts | 285° |
| 2026-05-04 20:40 | 48.03960 | 15.34346 | 33932 ft | 466 kts | 285° |
| 2026-05-04 20:40 | 48.05880 | 15.25077 | 33922 ft | 468 kts | 285° |
| 2026-05-04 20:41 | 48.07804 | 15.15758 | 33923 ft | 470 kts | 285° |
| 2026-05-04 20:41 | 48.09726 | 15.06404 | 33905 ft | 471 kts | 285° |
| 2026-05-04 20:42 | 48.11643 | 14.97029 | 33899 ft | 471 kts | 285° |
| 2026-05-04 20:42 | 48.13552 | 14.87648 | 33899 ft | 471 kts | 285° |
| 2026-05-04 20:43 | 48.15454 | 14.78258 | 33890 ft | 471 kts | 285° |
| 2026-05-04 20:43 | 48.17347 | 14.68874 | 33894 ft | 470 kts | 284° |
| 2026-05-04 20:44 | 48.19228 | 14.59502 | 33907 ft | 470 kts | 284° |
| 2026-05-04 20:44 | 48.21104 | 14.50105 | 33919 ft | 470 kts | 284° |
| 2026-05-04 20:45 | 48.22966 | 14.40719 | 33928 ft | 470 kts | 284° |
| 2026-05-04 20:45 | 48.24821 | 14.31339 | 33941 ft | 469 kts | 284° |
| 2026-05-04 20:46 | 48.26678 | 14.21938 | 33944 ft | 470 kts | 284° |
| 2026-05-04 20:46 | 48.28514 | 14.12537 | 33937 ft | 469 kts | 284° |
| 2026-05-04 20:47 | 48.30347 | 14.03132 | 33884 ft | 468 kts | 284° |
| 2026-05-04 20:47 | 48.32167 | 13.93746 | 33885 ft | 468 kts | 284° |
| 2026-05-04 20:48 | 48.33979 | 13.84360 | 33899 ft | 468 kts | 283° |
| 2026-05-04 20:48 | 48.35773 | 13.75016 | 33889 ft | 468 kts | 283° |
| 2026-05-04 20:49 | 48.37568 | 13.65617 | 33895 ft | 468 kts | 283° |
| 2026-05-04 20:49 | 48.39368 | 13.56148 | 33890 ft | 468 kts | 283° |
| 2026-05-04 20:50 | 48.41148 | 13.46741 | 33894 ft | 468 kts | 283° |
| 2026-05-04 20:50 | 48.42914 | 13.37367 | 33889 ft | 468 kts | 283° |
| 2026-05-04 20:51 | 48.45013 | 13.28065 | 33892 ft | 471 kts | 289° |
| 2026-05-04 20:51 | 48.47486 | 13.18852 | 33884 ft | 472 kts | 289° |
| 2026-05-04 20:52 | 48.49942 | 13.09666 | 33886 ft | 473 kts | 289° |
| 2026-05-04 20:52 | 48.52365 | 13.00499 | 33891 ft | 474 kts | 289° |
| 2026-05-04 20:53 | 48.54782 | 12.91250 | 33885 ft | 474 kts | 289° |
| 2026-05-04 20:53 | 48.57206 | 12.81937 | 33887 ft | 473 kts | 288° |
| 2026-05-04 20:54 | 48.59588 | 12.72747 | 33885 ft | 473 kts | 288° |
| 2026-05-04 20:54 | 48.61977 | 12.63495 | 33891 ft | 472 kts | 288° |
| 2026-05-04 20:55 | 48.64360 | 12.54233 | 33889 ft | 472 kts | 288° |
| 2026-05-04 20:55 | 48.66729 | 12.44986 | 33890 ft | 472 kts | 288° |
| 2026-05-04 20:56 | 48.69092 | 12.35724 | 33891 ft | 470 kts | 288° |
| 2026-05-04 20:56 | 48.71038 | 12.28058 | 33895 ft | 471 kts | 288° |
| 2026-05-04 20:57 | 48.73391 | 12.18788 | 33909 ft | 472 kts | 288° |
| 2026-05-04 20:57 | 48.75389 | 12.09353 | 33915 ft | 469 kts | 279° |
| 2026-05-04 20:58 | 48.76425 | 11.99627 | 33922 ft | 468 kts | 276° |
| 2026-05-04 20:58 | 48.77427 | 11.89791 | 33932 ft | 468 kts | 276° |
| 2026-05-04 20:59 | 48.78446 | 11.80112 | 33932 ft | 470 kts | 276° |
| 2026-05-04 20:59 | 48.79480 | 11.70313 | 33941 ft | 471 kts | 276° |
| 2026-05-04 21:00 | 48.80506 | 11.60497 | 33944 ft | 472 kts | 276° |
| 2026-05-04 21:00 | 48.81537 | 11.50650 | 33936 ft | 473 kts | 276° |
| 2026-05-04 21:01 | 48.82562 | 11.40815 | 33945 ft | 471 kts | 276° |
| 2026-05-04 21:01 | 48.83573 | 11.31001 | 33941 ft | 471 kts | 276° |
| 2026-05-04 21:02 | 48.85665 | 11.21562 | 33945 ft | 479 kts | 298° |
| 2026-05-04 21:02 | 48.90038 | 11.13884 | 33947 ft | 487 kts | 317° |
| 2026-05-04 21:03 | 48.95170 | 11.07109 | 33956 ft | 487 kts | 315° |
| 2026-05-04 21:03 | 49.00142 | 11.00135 | 33966 ft | 487 kts | 314° |
| 2026-05-04 21:04 | 49.02623 | 10.96606 | 33853 ft | 489 kts | 314° |
| 2026-05-04 21:04 | 49.05155 | 10.93015 | 32572 ft | 504 kts | 314° |
| 2026-05-04 21:04 | 49.07717 | 10.89396 | 31639 ft | 502 kts | 314° |
| 2026-05-04 21:04 | 49.10283 | 10.85776 | 30672 ft | 502 kts | 314° |
| 2026-05-04 21:05 | 49.12830 | 10.82185 | 30045 ft | 496 kts | 314° |
| 2026-05-04 21:05 | 49.15350 | 10.78629 | 29326 ft | 489 kts | 314° |
| 2026-05-04 21:05 | 49.17835 | 10.75111 | 28678 ft | 483 kts | 314° |
| 2026-05-04 21:05 | 49.20277 | 10.71642 | 28086 ft | 476 kts | 313° |
| 2026-05-04 21:06 | 49.22612 | 10.68106 | 27483 ft | 469 kts | 311° |
| 2026-05-04 21:06 | 49.24852 | 10.64527 | 26906 ft | 464 kts | 310° |
| 2026-05-04 21:06 | 49.27060 | 10.60961 | 26313 ft | 459 kts | 310° |
| 2026-05-04 21:06 | 49.29260 | 10.57435 | 25741 ft | 455 kts | 310° |
| 2026-05-04 21:07 | 49.31454 | 10.53952 | 25180 ft | 452 kts | 311° |
| 2026-05-04 21:07 | 49.33629 | 10.50513 | 24621 ft | 448 kts | 311° |
| 2026-05-04 21:07 | 49.35793 | 10.47090 | 24080 ft | 445 kts | 310° |
| 2026-05-04 21:07 | 49.37779 | 10.43513 | 23597 ft | 437 kts | 304° |
| 2026-05-04 21:08 | 49.39500 | 10.39780 | 23107 ft | 433 kts | 301° |
| 2026-05-04 21:08 | 49.41180 | 10.35883 | 22630 ft | 432 kts | 300° |
| 2026-05-04 21:08 | 49.42818 | 10.32075 | 22186 ft | 433 kts | 301° |
| 2026-05-04 21:08 | 49.44496 | 10.28254 | 21773 ft | 432 kts | 301° |
| 2026-05-04 21:09 | 49.46200 | 10.24448 | 21335 ft | 431 kts | 302° |
| 2026-05-04 21:09 | 49.47911 | 10.20664 | 20900 ft | 430 kts | 302° |
| 2026-05-04 21:09 | 49.49619 | 10.16899 | 20466 ft | 428 kts | 302° |
| 2026-05-04 21:09 | 49.51314 | 10.13164 | 20040 ft | 426 kts | 302° |
| 2026-05-04 21:10 | 49.53007 | 10.09423 | 19624 ft | 424 kts | 302° |
| 2026-05-04 21:10 | 49.54855 | 10.05889 | 19359 ft | 423 kts | 310° |
| 2026-05-04 21:10 | 49.56972 | 10.02759 | 19128 ft | 420 kts | 316° |
| 2026-05-04 21:10 | 49.59258 | 9.99962 | 18872 ft | 420 kts | 322° |
| 2026-05-04 21:11 | 49.61661 | 9.97419 | 18587 ft | 420 kts | 323° |
| 2026-05-04 21:11 | 49.64073 | 9.94876 | 18209 ft | 419 kts | 323° |
| 2026-05-04 21:11 | 49.66470 | 9.92341 | 17805 ft | 416 kts | 323° |
| 2026-05-04 21:11 | 49.68850 | 9.89803 | 17410 ft | 413 kts | 323° |
| 2026-05-04 21:12 | 49.71210 | 9.87269 | 17017 ft | 411 kts | 322° |
| 2026-05-04 21:12 | 49.73544 | 9.84762 | 16655 ft | 408 kts | 322° |
| 2026-05-04 21:12 | 49.75876 | 9.82252 | 16306 ft | 407 kts | 322° |
| 2026-05-04 21:12 | 49.78185 | 9.79753 | 15941 ft | 405 kts | 322° |
| 2026-05-04 21:13 | 49.80498 | 9.77265 | 15584 ft | 404 kts | 323° |
| 2026-05-04 21:13 | 49.82801 | 9.74779 | 15230 ft | 403 kts | 322° |
| 2026-05-04 21:13 | 49.85090 | 9.72305 | 14881 ft | 400 kts | 322° |
| 2026-05-04 21:13 | 49.87359 | 9.69840 | 14524 ft | 395 kts | 323° |
| 2026-05-04 21:14 | 49.89603 | 9.67409 | 14163 ft | 394 kts | 322° |
| 2026-05-04 21:14 | 49.91845 | 9.64966 | 13819 ft | 394 kts | 322° |
| 2026-05-04 21:14 | 49.94086 | 9.62525 | 13433 ft | 393 kts | 322° |
| 2026-05-04 21:14 | 49.96320 | 9.60106 | 13078 ft | 391 kts | 323° |
| 2026-05-04 21:15 | 49.98537 | 9.57704 | 12686 ft | 386 kts | 322° |
| 2026-05-04 21:15 | 50.00720 | 9.55326 | 12268 ft | 381 kts | 322° |
| 2026-05-04 21:15 | 50.02871 | 9.52975 | 11862 ft | 376 kts | 322° |
| 2026-05-04 21:15 | 50.04962 | 9.50695 | 11630 ft | 352 kts | 322° |
| 2026-05-04 21:16 | 50.06888 | 9.48593 | 11314 ft | 325 kts | 322° |
| 2026-05-04 21:16 | 50.08668 | 9.46650 | 11031 ft | 302 kts | 321° |
| 2026-05-04 21:16 | 50.10343 | 9.44813 | 10609 ft | 289 kts | 321° |
| 2026-05-04 21:16 | 50.11973 | 9.43016 | 10118 ft | 286 kts | 321° |
| 2026-05-04 21:17 | 50.13592 | 9.41228 | 9803 ft | 284 kts | 321° |
| 2026-05-04 21:17 | 50.15196 | 9.39466 | 9524 ft | 280 kts | 321° |
| 2026-05-04 21:17 | 50.16782 | 9.37722 | 9182 ft | 279 kts | 322° |
| 2026-05-04 21:17 | 50.18373 | 9.35971 | 8821 ft | 278 kts | 322° |
| 2026-05-04 21:18 | 50.19949 | 9.34235 | 8479 ft | 277 kts | 322° |
| 2026-05-04 21:18 | 50.21364 | 9.32277 | 8041 ft | 269 kts | 301° |
| 2026-05-04 21:18 | 50.21977 | 9.29620 | 7829 ft | 254 kts | 271° |
| 2026-05-04 21:18 | 50.21885 | 9.26946 | 7807 ft | 241 kts | 254° |
| 2026-05-04 21:19 | 50.21392 | 9.24491 | 7806 ft | 236 kts | 248° |
| 2026-05-04 21:19 | 50.20825 | 9.22083 | 7811 ft | 237 kts | 248° |
| 2026-05-04 21:19 | 50.20247 | 9.19700 | 7841 ft | 237 kts | 247° |
| 2026-05-04 21:19 | 50.19659 | 9.17243 | 7781 ft | 240 kts | 247° |
| 2026-05-04 21:20 | 50.19084 | 9.14812 | 7530 ft | 243 kts | 248° |
| 2026-05-04 21:20 | 50.18503 | 9.12326 | 7291 ft | 237 kts | 248° |
| 2026-05-04 21:20 | 50.17953 | 9.09977 | 7077 ft | 230 kts | 248° |
| 2026-05-04 21:20 | 50.17404 | 9.07639 | 6877 ft | 229 kts | 248° |
| 2026-05-04 21:21 | 50.16849 | 9.05262 | 6675 ft | 232 kts | 248° |
| 2026-05-04 21:21 | 50.16322 | 9.02865 | 6471 ft | 234 kts | 249° |
| 2026-05-04 21:21 | 50.15784 | 9.00460 | 6257 ft | 236 kts | 248° |
| 2026-05-04 21:21 | 50.15225 | 8.98050 | 6034 ft | 237 kts | 248° |
| 2026-05-04 21:22 | 50.14653 | 8.95628 | 5812 ft | 238 kts | 248° |
| 2026-05-04 21:22 | 50.14089 | 8.93250 | 5598 ft | 235 kts | 248° |
| 2026-05-04 21:22 | 50.13517 | 8.90848 | 5366 ft | 231 kts | 248° |
| 2026-05-04 21:22 | 50.12961 | 8.88514 | 5174 ft | 229 kts | 248° |
| 2026-05-04 21:23 | 50.12416 | 8.86229 | 5044 ft | 229 kts | 248° |
| 2026-05-04 21:23 | 50.11846 | 8.83835 | 4708 ft | 236 kts | 248° |
| 2026-05-04 21:23 | 50.11281 | 8.81461 | 4370 ft | 236 kts | 249° |
| 2026-05-04 21:23 | 50.10708 | 8.79056 | 4020 ft | 232 kts | 249° |
| 2026-05-04 21:24 | 50.10160 | 8.76756 | 3708 ft | 228 kts | 249° |
| 2026-05-04 21:24 | 50.09614 | 8.74463 | 3397 ft | 224 kts | 249° |
| 2026-05-04 21:24 | 50.09076 | 8.72201 | 3070 ft | 221 kts | 250° |
| 2026-05-04 21:24 | 50.08546 | 8.69977 | 2761 ft | 217 kts | 250° |
| 2026-05-04 21:25 | 50.08034 | 8.67833 | 2444 ft | 204 kts | 250° |
| 2026-05-04 21:25 | 50.07556 | 8.65827 | 2183 ft | 193 kts | 250° |
| 2026-05-04 21:25 | 50.07098 | 8.63907 | 1900 ft | 183 kts | 250° |
| 2026-05-04 21:25 | 50.06675 | 8.62139 | 1658 ft | 167 kts | 250° |
| 2026-05-04 21:26 | 50.06293 | 8.60537 | 1436 ft | 151 kts | 251° |
| 2026-05-04 21:26 | 50.05924 | 8.58993 | 1224 ft | 153 kts | 250° |
| 2026-05-04 21:26 | 50.05554 | 8.57450 | 1003 ft | 151 kts | 250° |
| 2026-05-04 21:26 | 50.05204 | 8.55932 | 751 ft | 147 kts | 250° |
| 2026-05-04 21:27 | 50.04841 | 8.54449 | 566 ft | 147 kts | 250° |
| 2026-05-04 21:27 | 50.04486 | 8.52945 | 387 ft | 149 kts | 249° |
| 2026-05-04 21:27 | 50.04139 | 8.51524 | 334 ft | 125 kts | 250° |
| 2026-05-04 21:27 | 50.03902 | 8.50524 | 323 ft | 72 kts | 249° |
| 2026-05-04 21:28 | 50.03784 | 8.50059 | 319 ft | 24 kts | 249° |
| 2026-05-04 21:28 | 50.03726 | 8.49835 | 318 ft | 20 kts | 238° |
| 2026-05-04 21:28 | 50.03602 | 8.49791 | 318 ft | 20 kts | 157° |
| 2026-05-04 21:28 | 50.03558 | 8.49973 | 324 ft | 20 kts | 77° |
| 2026-05-04 21:29 | 50.03603 | 8.50173 | 323 ft | 20 kts | 67° |
| 2026-05-04 21:29 | 50.03652 | 8.50371 | 327 ft | 20 kts | 70° |
| 2026-05-04 21:29 | 50.03696 | 8.50571 | 331 ft | 20 kts | 71° |
| 2026-05-04 21:29 | 50.03744 | 8.50770 | 333 ft | 20 kts | 69° |
| 2026-05-04 21:30 | 50.03792 | 8.50969 | 337 ft | 20 kts | 69° |
| 2026-05-04 21:30 | 50.03841 | 8.51167 | 338 ft | 20 kts | 69° |
| 2026-05-04 21:30 | 50.03889 | 8.51365 | 335 ft | 20 kts | 71° |